Terminal Aerodrome Forecast
Issued by NWS

Home | Current Version | Previous Version | Text Only | Print | Product List | Glossary On
Versions: 1 2 3 4 5 6 7 8 9 10 11 12
000
FTUS46 KSGX 291700
TAFSNA
TAF
KSNA 291735Z 2918/3018 VRB05KT P6SM FEW200
     FM292000 22009KT P6SM FEW200
     FM300100 VRB04KT P6SM SCT010
     FM301100 VRB03KT P6SM BKN010
     FM301600 VRB05KT P6SM SCT012=

USA.gov is the U.S. government's official web portal to all federal, state and local government web resources and services.